createdAt,value
2019-06-26T00:00:25.981Z,27.19
2019-06-26T00:01:25.937Z,27.20
2019-06-26T00:02:25.900Z,27.16
2019-06-26T00:03:25.865Z,27.15
2019-06-26T00:04:25.819Z,27.16
2019-06-26T00:05:25.780Z,27.15
2019-06-26T00:06:25.742Z,27.10
2019-06-26T00:07:25.707Z,27.04
2019-06-26T00:08:25.664Z,27.07
2019-06-26T00:09:25.621Z,27.03
2019-06-26T00:10:25.590Z,27.00
2019-06-26T00:11:25.544Z,26.98
2019-06-26T00:12:25.502Z,26.96
2019-06-26T00:13:26.873Z,26.98
2019-06-26T00:14:25.457Z,26.91
2019-06-26T00:15:25.384Z,26.85
2019-06-26T00:16:25.346Z,26.89
2019-06-26T00:17:25.303Z,26.85
2019-06-26T00:18:25.264Z,26.88
2019-06-26T00:19:25.224Z,26.82
2019-06-26T00:20:25.190Z,26.85
2019-06-26T00:21:25.141Z,26.73
2019-06-26T00:22:25.113Z,26.70
2019-06-26T00:23:25.069Z,26.73
2019-06-26T00:24:25.026Z,26.68
2019-06-26T00:25:24.985Z,26.66
2019-06-26T00:26:24.944Z,26.64
2019-06-26T00:27:24.910Z,26.55
2019-06-26T00:28:24.869Z,26.59
2019-06-26T00:29:24.823Z,26.59
2019-06-26T00:30:24.784Z,26.59
2019-06-26T00:31:24.746Z,26.56
2019-06-26T00:32:24.704Z,26.59
2019-06-26T00:33:24.662Z,26.52
2019-06-26T00:34:24.623Z,26.44
2019-06-26T00:35:24.599Z,26.39
2019-06-26T00:36:24.545Z,26.39
2019-06-26T00:37:24.510Z,26.41
2019-06-26T00:38:24.461Z,26.31
2019-06-26T00:39:24.422Z,26.30
2019-06-26T00:40:24.387Z,26.27
2019-06-26T00:41:24.342Z,26.22
2019-06-26T00:42:24.306Z,26.24
2019-06-26T00:43:24.268Z,26.23
2019-06-26T00:44:24.221Z,26.27
2019-06-26T00:45:24.187Z,26.22
2019-06-26T00:46:24.144Z,26.18
2019-06-26T00:47:24.105Z,26.18
2019-06-26T00:48:24.072Z,26.16
2019-06-26T00:49:24.021Z,26.16
2019-06-26T00:50:23.990Z,26.10
2019-06-26T00:51:23.945Z,26.13
2019-06-26T00:52:23.901Z,26.04
2019-06-26T00:53:23.860Z,25.98
2019-06-26T00:54:23.822Z,26.11
2019-06-26T00:55:23.782Z,26.04
2019-06-26T00:56:23.741Z,26.01
2019-06-26T00:57:23.706Z,26.04
2019-06-26T00:58:23.665Z,25.89
2019-06-26T00:59:23.622Z,25.92
2019-06-26T01:00:23.579Z,25.86
2019-06-26T01:01:23.572Z,25.88
2019-06-26T01:02:23.502Z,25.81
2019-06-26T01:03:23.458Z,25.89
2019-06-26T01:04:23.420Z,25.85
2019-06-26T01:05:23.407Z,25.88
2019-06-26T01:06:23.338Z,25.80
2019-06-26T01:07:23.301Z,25.78
2019-06-26T01:08:23.259Z,25.74
2019-06-26T01:09:23.217Z,25.76
2019-06-26T01:10:23.179Z,25.70
2019-06-26T01:11:23.137Z,25.74
2019-06-26T01:12:23.099Z,25.70
2019-06-26T01:13:23.068Z,25.73
2019-06-26T01:14:23.026Z,25.73
2019-06-26T01:15:23.000Z,25.76
2019-06-26T01:16:22.972Z,25.71
2019-06-26T01:17:22.900Z,25.76
2019-06-26T01:18:22.864Z,25.66
2019-06-26T01:19:22.816Z,25.77
2019-06-26T01:20:22.778Z,25.68
2019-06-26T01:21:22.737Z,25.63
2019-06-26T01:22:22.694Z,25.63
2019-06-26T01:23:22.653Z,25.63
2019-06-26T01:24:22.616Z,25.59
2019-06-26T01:25:22.574Z,25.61
2019-06-26T01:26:22.535Z,25.70
2019-06-26T01:27:22.492Z,25.68
2019-06-26T01:28:22.452Z,25.67
2019-06-26T01:29:22.411Z,25.56
2019-06-26T01:30:22.371Z,25.61
2019-06-26T01:31:22.332Z,25.56
2019-06-26T01:32:22.290Z,25.56
2019-06-26T01:33:22.250Z,25.58
2019-06-26T01:34:22.210Z,25.51
2019-06-26T01:35:22.166Z,25.51
2019-06-26T01:36:22.128Z,25.48
2019-06-26T01:37:22.088Z,25.49
2019-06-26T01:38:22.049Z,25.44
2019-06-26T01:39:22.004Z,25.48
2019-06-26T01:40:21.967Z,25.46
2019-06-26T01:41:21.932Z,25.40
2019-06-26T01:42:21.888Z,25.41
2019-06-26T01:43:21.845Z,25.36
2019-06-26T01:44:21.803Z,25.39
2019-06-26T01:45:21.764Z,25.37
2019-06-26T01:47:21.684Z,25.43
2019-06-26T01:48:21.643Z,25.31
2019-06-26T01:49:21.602Z,25.39
2019-06-26T01:50:21.559Z,25.36
2019-06-26T01:51:21.521Z,25.34
2019-06-26T01:52:21.480Z,25.33
2019-06-26T01:53:21.436Z,25.31
2019-06-26T01:54:21.399Z,25.36
2019-06-26T01:56:21.319Z,25.29
2019-06-26T01:57:21.277Z,25.24
2019-06-26T01:58:21.239Z,25.31
2019-06-26T01:59:21.197Z,25.22
2019-06-26T02:00:21.154Z,25.24
2019-06-26T02:01:21.112Z,25.12
2019-06-26T02:02:21.080Z,25.19
2019-06-26T02:03:21.033Z,25.22
2019-06-26T02:04:20.993Z,25.15
2019-06-26T02:05:21.019Z,25.11
2019-06-26T02:06:20.914Z,25.06
2019-06-26T02:07:20.874Z,25.11
2019-06-26T02:08:20.829Z,25.06
2019-06-26T02:09:20.794Z,24.97
2019-06-26T02:10:20.755Z,24.97
2019-06-26T02:11:20.739Z,24.99
2019-06-26T02:12:20.666Z,24.96
2019-06-26T02:13:20.626Z,25.01
2019-06-26T02:14:30.419Z,24.93
2019-06-26T02:16:20.502Z,25.00
2019-06-26T02:17:20.464Z,24.99
2019-06-26T02:18:20.425Z,24.86
2019-06-26T02:19:20.385Z,24.93
2019-06-26T02:20:20.342Z,24.93
2019-06-26T02:21:20.299Z,24.88
2019-06-26T02:22:20.258Z,24.82
2019-06-26T02:23:20.218Z,24.82
2019-06-26T02:24:20.176Z,24.81
2019-06-26T02:25:20.159Z,24.79
2019-06-26T02:26:20.096Z,24.74
2019-06-26T02:27:20.059Z,24.79
2019-06-26T02:28:20.015Z,24.65
2019-06-26T02:29:19.993Z,24.63
2019-06-26T02:30:19.933Z,24.69
2019-06-26T02:31:19.904Z,24.63
2019-06-26T02:32:19.889Z,24.71
2019-06-26T02:33:19.827Z,24.68
2019-06-26T02:34:19.779Z,24.59
2019-06-26T02:35:19.738Z,24.61
2019-06-26T02:36:19.697Z,24.61
2019-06-26T02:37:19.655Z,24.50
2019-06-26T02:38:19.615Z,24.50
2019-06-26T02:39:19.581Z,24.51
2019-06-26T02:40:19.537Z,24.46
2019-06-26T02:41:19.496Z,24.50
2019-06-26T02:42:19.456Z,24.44
2019-06-26T02:43:19.413Z,24.50
2019-06-26T02:44:19.372Z,24.44
2019-06-26T02:45:19.330Z,24.41
2019-06-26T02:46:19.294Z,24.47
2019-06-26T02:47:20.912Z,24.36
2019-06-26T02:48:19.236Z,24.41
2019-06-26T02:49:19.180Z,24.32
2019-06-26T02:50:19.125Z,24.31
2019-06-26T02:51:19.090Z,24.29
2019-06-26T02:52:19.056Z,24.37
2019-06-26T02:53:19.002Z,24.34
2019-06-26T02:54:18.974Z,24.37
2019-06-26T02:55:18.921Z,24.29
2019-06-26T02:56:18.884Z,24.36
2019-06-26T02:57:18.846Z,24.26
2019-06-26T02:58:18.806Z,24.29
2019-06-26T02:59:18.766Z,24.25
2019-06-26T03:00:18.723Z,24.28
2019-06-26T03:01:18.698Z,24.28
2019-06-26T03:02:18.637Z,24.31
2019-06-26T03:03:18.619Z,24.25
2019-06-26T03:04:18.555Z,24.25
2019-06-26T03:05:18.513Z,24.28
2019-06-26T03:06:18.477Z,24.28
2019-06-26T03:07:18.435Z,24.25
2019-06-26T03:08:18.395Z,24.22
2019-06-26T03:09:18.350Z,24.14
2019-06-26T03:10:18.314Z,24.22
2019-06-26T03:11:18.292Z,24.19
2019-06-26T03:12:18.227Z,24.21
2019-06-26T03:13:18.186Z,24.16
2019-06-26T03:14:18.147Z,24.22
2019-06-26T03:15:18.104Z,24.11
2019-06-26T03:16:18.062Z,24.13
2019-06-26T03:17:18.021Z,24.13
2019-06-26T03:18:17.980Z,24.13
2019-06-26T03:19:17.941Z,24.14
2019-06-26T03:20:17.896Z,24.10
2019-06-26T03:21:17.858Z,24.10
2019-06-26T03:22:17.815Z,24.11
2019-06-26T03:23:17.779Z,24.19
2019-06-26T03:24:17.733Z,24.14
2019-06-26T03:25:17.690Z,24.10
2019-06-26T03:26:17.650Z,24.07
2019-06-26T03:27:17.610Z,24.13
2019-06-26T03:28:17.568Z,24.13
2019-06-26T03:29:17.528Z,24.11
2019-06-26T03:30:17.489Z,24.11
2019-06-26T03:31:17.448Z,24.16
2019-06-26T03:32:17.454Z,24.13
2019-06-26T03:33:17.364Z,24.19
2019-06-26T03:34:17.320Z,24.16
2019-06-26T03:35:17.284Z,24.11
2019-06-26T03:36:17.243Z,24.19
2019-06-26T03:37:17.199Z,24.14
2019-06-26T03:38:17.161Z,24.11
2019-06-26T03:39:17.120Z,24.14
2019-06-26T03:40:17.086Z,24.18
2019-06-26T03:41:17.070Z,24.11
2019-06-26T03:42:16.997Z,24.11
2019-06-26T03:43:16.954Z,24.11
2019-06-26T03:44:16.914Z,24.07
2019-06-26T03:45:25.872Z,24.14
2019-06-26T03:46:16.831Z,24.11
2019-06-26T03:47:16.790Z,24.13
2019-06-26T03:48:16.744Z,24.13
2019-06-26T03:49:16.709Z,24.19
2019-06-26T03:50:16.664Z,24.21
2019-06-26T03:51:16.637Z,24.25
2019-06-26T03:52:16.582Z,24.29
2019-06-26T03:53:16.543Z,24.28
2019-06-26T03:54:16.500Z,24.26
2019-06-26T03:55:16.476Z,24.25
2019-06-26T03:56:16.421Z,24.26
2019-06-26T03:57:16.374Z,24.25
2019-06-26T03:58:16.332Z,24.32
2019-06-26T03:59:16.298Z,24.24
2019-06-26T04:00:16.255Z,24.26
2019-06-26T04:01:16.214Z,24.40
2019-06-26T04:02:16.173Z,24.32
2019-06-26T04:03:16.139Z,24.40
2019-06-26T04:04:16.092Z,24.34
2019-06-26T04:05:16.047Z,24.38
2019-06-26T04:06:16.008Z,24.37
2019-06-26T04:07:15.966Z,24.36
2019-06-26T04:08:18.380Z,24.34
2019-06-26T04:09:15.890Z,24.38
2019-06-26T04:10:15.845Z,24.37
2019-06-26T04:11:15.804Z,24.43
2019-06-26T04:12:15.775Z,24.38
2019-06-26T04:13:15.719Z,24.31
2019-06-26T04:14:15.681Z,24.34
2019-06-26T04:15:15.637Z,24.34
2019-06-26T04:16:15.598Z,24.36
2019-06-26T04:17:15.578Z,24.34
2019-06-26T04:18:15.514Z,24.46
2019-06-26T04:19:15.474Z,24.41
2019-06-26T04:20:15.435Z,24.50
2019-06-26T04:21:15.401Z,24.50
2019-06-26T04:22:15.351Z,24.55
2019-06-26T04:23:15.312Z,24.48
2019-06-26T04:24:15.272Z,24.48
2019-06-26T04:25:15.226Z,24.58
2019-06-26T04:26:15.198Z,24.55
2019-06-26T04:27:15.147Z,24.51
2019-06-26T04:28:15.109Z,24.59
2019-06-26T04:29:15.064Z,24.50
2019-06-26T04:30:15.026Z,24.61
2019-06-26T04:31:15.006Z,24.61
2019-06-26T04:32:14.942Z,24.59
2019-06-26T04:33:14.905Z,24.63
2019-06-26T04:34:14.862Z,24.66
2019-06-26T04:35:14.824Z,24.68
2019-06-26T04:36:14.778Z,24.68
2019-06-26T04:37:14.744Z,24.66
2019-06-26T04:38:14.693Z,24.68
2019-06-26T04:39:14.659Z,24.79
2019-06-26T04:40:14.612Z,24.65
2019-06-26T04:41:14.573Z,24.78
2019-06-26T04:42:14.533Z,24.77
2019-06-26T04:43:14.489Z,24.78
2019-06-26T04:44:14.455Z,24.82
2019-06-26T04:46:39.407Z,24.78
2019-06-26T04:47:39.158Z,24.82
2019-06-26T04:48:39.114Z,24.85
2019-06-26T04:49:39.079Z,24.82
2019-06-26T04:50:39.046Z,24.85
2019-06-26T04:51:38.988Z,24.88
2019-06-26T04:52:38.956Z,24.88
2019-06-26T04:53:38.909Z,24.88
2019-06-26T04:54:38.869Z,24.89
2019-06-26T04:55:38.826Z,24.96
2019-06-26T04:56:38.784Z,24.94
2019-06-26T04:57:38.743Z,24.89
2019-06-26T04:58:38.763Z,24.96
2019-06-26T04:59:38.691Z,25.00
2019-06-26T05:00:38.622Z,24.96
2019-06-26T05:01:38.584Z,24.97
2019-06-26T05:02:38.540Z,24.94
2019-06-26T05:03:38.505Z,25.03
2019-06-26T05:04:38.469Z,25.01
2019-06-26T05:05:39.841Z,25.01
2019-06-26T05:06:38.388Z,25.00
2019-06-26T05:07:38.335Z,24.99
2019-06-26T05:08:38.301Z,24.99
2019-06-26T05:09:38.257Z,25.07
2019-06-26T05:10:38.216Z,25.06
2019-06-26T05:11:38.175Z,25.03
2019-06-26T05:12:38.136Z,25.07
2019-06-26T05:13:38.094Z,25.11
2019-06-26T05:14:38.049Z,25.12
2019-06-26T05:15:38.010Z,25.18
2019-06-26T05:16:37.967Z,25.16
2019-06-26T05:17:37.930Z,25.18
2019-06-26T05:18:37.889Z,25.18
2019-06-26T05:19:37.847Z,25.19
2019-06-26T05:21:37.765Z,25.19
2019-06-26T05:22:37.726Z,25.21
2019-06-26T05:24:37.641Z,25.24
2019-06-26T05:25:37.602Z,25.22
2019-06-26T05:26:37.570Z,25.30
2019-06-26T05:27:37.523Z,25.30
2019-06-26T05:28:37.480Z,25.26
2019-06-26T05:29:37.440Z,25.34
2019-06-26T05:30:37.409Z,25.34
2019-06-26T05:31:37.357Z,25.31
2019-06-26T05:32:37.320Z,25.37
2019-06-26T05:33:37.277Z,25.30
2019-06-26T05:34:37.263Z,25.36
2019-06-26T05:35:37.195Z,25.36
2019-06-26T05:36:37.153Z,25.30
2019-06-26T05:37:37.119Z,25.37
2019-06-26T05:38:37.071Z,25.39
2019-06-26T05:39:37.031Z,25.41
2019-06-26T05:40:36.994Z,25.37
2019-06-26T05:41:36.951Z,25.40
2019-06-26T05:42:36.910Z,25.37
2019-06-26T05:43:36.869Z,25.36
2019-06-26T05:44:36.827Z,25.40
2019-06-26T05:45:36.802Z,25.37
2019-06-26T05:46:36.746Z,25.48
2019-06-26T05:47:36.707Z,25.39
2019-06-26T05:48:36.685Z,25.48
2019-06-26T05:49:36.626Z,25.54
2019-06-26T05:50:36.584Z,25.36
2019-06-26T05:51:36.542Z,25.39
2019-06-26T05:52:36.504Z,25.51
2019-06-26T05:53:36.467Z,25.46
2019-06-26T05:54:36.422Z,25.48
2019-06-26T05:55:36.384Z,25.49
2019-06-26T05:56:36.342Z,25.46
2019-06-26T05:57:36.304Z,25.52
2019-06-26T05:58:36.259Z,25.54
2019-06-26T05:59:36.218Z,25.56
2019-06-26T06:00:36.181Z,25.49
2019-06-26T06:01:36.147Z,25.55
2019-06-26T06:02:36.105Z,25.49
2019-06-26T06:03:36.069Z,25.44
2019-06-26T06:04:36.014Z,25.44
2019-06-26T06:05:35.974Z,25.46
2019-06-26T06:06:41.598Z,25.44
2019-06-26T06:08:35.858Z,25.48
2019-06-26T06:09:35.813Z,25.54
2019-06-26T06:10:35.782Z,25.51
2019-06-26T06:11:35.738Z,25.56
2019-06-26T06:12:35.692Z,25.55
2019-06-26T06:13:35.650Z,25.52
2019-06-26T06:14:35.609Z,25.56
2019-06-26T06:15:35.573Z,25.55
2019-06-26T06:16:46.843Z,25.48
2019-06-26T06:17:35.528Z,25.54
2019-06-26T06:18:35.449Z,25.54
2019-06-26T06:19:35.406Z,25.56
2019-06-26T06:20:35.381Z,25.56
2019-06-26T06:21:35.326Z,25.62
2019-06-26T06:22:35.291Z,25.63
2019-06-26T06:23:35.245Z,25.58
2019-06-26T06:24:37.836Z,25.70
2019-06-26T06:25:35.164Z,25.68
2019-06-26T06:26:35.124Z,25.61
2019-06-26T06:27:35.081Z,25.63
2019-06-26T06:28:35.044Z,25.56
2019-06-26T06:29:35.017Z,25.66
2019-06-26T06:30:34.966Z,25.66
2019-06-26T06:31:34.987Z,25.61
2019-06-26T06:32:34.888Z,25.61
2019-06-26T06:33:34.839Z,25.63
2019-06-26T06:34:34.797Z,25.68
2019-06-26T06:36:34.717Z,25.62
2019-06-26T06:37:34.680Z,25.68
2019-06-26T06:38:34.651Z,25.68
2019-06-26T06:39:34.594Z,25.77
2019-06-26T06:40:34.554Z,25.67
2019-06-26T06:41:34.513Z,25.68
2019-06-26T06:42:34.474Z,25.73
2019-06-26T06:43:34.433Z,25.77
2019-06-26T06:44:34.404Z,25.76
2019-06-26T06:45:34.359Z,25.77
2019-06-26T06:46:34.312Z,25.78
2019-06-26T06:47:34.272Z,25.74
2019-06-26T06:48:34.234Z,25.76
2019-06-26T06:49:34.190Z,25.74
2019-06-26T06:50:34.150Z,25.86
2019-06-26T06:51:34.112Z,25.83
2019-06-26T06:52:34.070Z,25.81
2019-06-26T06:53:34.037Z,25.85
2019-06-26T06:54:33.986Z,25.80
2019-06-26T06:55:33.946Z,25.81
2019-06-26T06:56:33.911Z,25.85
2019-06-26T06:57:33.868Z,25.85
2019-06-26T06:58:33.829Z,25.93
2019-06-26T06:59:33.789Z,25.86
2019-06-26T07:00:33.809Z,25.88
2019-06-26T07:01:33.706Z,25.91
2019-06-26T07:02:33.665Z,25.88
2019-06-26T07:03:33.633Z,25.93
2019-06-26T07:04:33.583Z,25.91
2019-06-26T07:05:33.542Z,26.04
2019-06-26T07:06:33.568Z,26.01
2019-06-26T07:07:33.465Z,26.04
2019-06-26T07:08:33.423Z,26.04
2019-06-26T07:09:33.380Z,26.03
2019-06-26T07:10:33.341Z,26.03
2019-06-26T07:11:33.306Z,26.04
2019-06-26T07:12:33.363Z,26.04
2019-06-26T07:13:33.268Z,26.08
2019-06-26T07:14:33.182Z,26.04
2019-06-26T07:15:33.144Z,26.07
2019-06-26T07:16:33.103Z,25.98
2019-06-26T07:17:33.061Z,26.06
2019-06-26T07:18:33.017Z,26.01
2019-06-26T07:19:32.993Z,26.08
2019-06-26T07:20:32.942Z,26.23
2019-06-26T07:21:32.899Z,26.23
2019-06-26T07:22:33.156Z,26.16
2019-06-26T07:23:32.816Z,26.19
2019-06-26T07:24:32.779Z,26.19
2019-06-26T07:25:32.738Z,26.22
2019-06-26T07:26:32.693Z,26.15
2019-06-26T07:27:32.653Z,26.24
2019-06-26T07:28:32.621Z,26.24
2019-06-26T07:29:32.574Z,26.24
2019-06-26T07:30:32.530Z,26.33
2019-06-26T07:31:32.496Z,26.24
2019-06-26T07:32:32.455Z,26.26
2019-06-26T07:33:32.417Z,26.29
2019-06-26T07:34:32.374Z,26.31
2019-06-26T07:35:32.330Z,26.34
2019-06-26T07:36:32.298Z,26.36
2019-06-26T07:37:32.251Z,26.41
2019-06-26T07:38:32.215Z,26.39
2019-06-26T07:39:32.170Z,26.41
2019-06-26T07:40:32.138Z,26.45
2019-06-26T07:41:32.092Z,26.37
2019-06-26T07:42:32.054Z,26.49
2019-06-26T07:43:32.014Z,26.51
2019-06-26T07:44:31.982Z,26.56
2019-06-26T07:45:31.936Z,26.53
2019-06-26T07:46:31.892Z,26.53
2019-06-26T07:47:42.386Z,26.56
2019-06-26T07:48:31.819Z,26.55
2019-06-26T07:49:31.766Z,26.60
2019-06-26T07:50:32.717Z,26.68
2019-06-26T07:51:31.693Z,26.64
2019-06-26T07:52:31.651Z,26.64
2019-06-26T07:54:31.568Z,26.76
2019-06-26T07:55:31.533Z,26.73
2019-06-26T07:56:31.497Z,26.74
2019-06-26T07:57:31.452Z,26.78
2019-06-26T07:58:31.407Z,26.78
2019-06-26T07:59:31.402Z,26.86
2019-06-26T08:00:31.949Z,26.91
2019-06-26T08:01:31.293Z,26.85
2019-06-26T08:02:31.246Z,26.91
2019-06-26T08:03:31.224Z,26.97
2019-06-26T08:04:31.183Z,26.97
2019-06-26T08:05:31.130Z,27.00
2019-06-26T08:06:31.153Z,27.01
2019-06-26T08:07:31.052Z,27.10
2019-06-26T08:08:31.012Z,27.11
2019-06-26T08:09:30.975Z,27.10
2019-06-26T08:10:30.932Z,27.15
2019-06-26T08:11:30.890Z,27.15
2019-06-26T08:12:30.850Z,27.18
2019-06-26T08:13:30.813Z,27.11
2019-06-26T08:14:30.862Z,27.18
2019-06-26T08:15:30.734Z,27.23
2019-06-26T08:16:34.288Z,27.18
2019-06-26T08:17:30.648Z,27.30
2019-06-26T08:18:30.698Z,27.25
2019-06-26T08:19:30.583Z,27.33
2019-06-26T08:20:30.552Z,27.30
2019-06-26T08:21:30.495Z,27.40
2019-06-26T08:22:30.451Z,27.45
2019-06-26T08:23:30.433Z,27.50
2019-06-26T08:24:30.377Z,27.43
2019-06-26T08:25:30.333Z,27.48
2019-06-26T08:26:30.295Z,27.61
2019-06-26T08:27:30.256Z,27.61
2019-06-26T08:28:30.215Z,27.64
2019-06-26T08:29:30.172Z,27.68
2019-06-26T08:30:30.135Z,27.66
2019-06-26T08:31:30.099Z,27.78
2019-06-26T08:32:30.052Z,27.73
2019-06-26T08:33:30.018Z,27.71
2019-06-26T08:34:29.978Z,27.72
2019-06-26T08:35:29.950Z,27.76
2019-06-26T08:36:29.897Z,27.83
2019-06-26T08:37:29.856Z,27.93
2019-06-26T08:38:29.830Z,27.93
2019-06-26T08:39:29.783Z,27.86
2019-06-26T08:40:29.737Z,27.94
2019-06-26T08:41:29.701Z,27.97
2019-06-26T08:42:29.660Z,28.00
2019-06-26T08:43:31.506Z,28.06
2019-06-26T08:44:29.582Z,28.19
2019-06-26T08:45:29.542Z,28.08
2019-06-26T08:48:40.121Z,28.23
2019-06-26T08:49:36.646Z,28.31
2019-06-26T08:50:36.608Z,28.31
2019-06-26T08:51:36.565Z,28.28
2019-06-26T08:52:36.529Z,28.38
2019-06-26T08:53:36.498Z,28.34
2019-06-26T08:54:36.454Z,28.47
2019-06-26T08:55:36.408Z,28.40
2019-06-26T08:56:36.368Z,28.60
2019-06-26T08:57:36.335Z,28.46
2019-06-26T08:58:36.295Z,28.56
2019-06-26T08:59:36.271Z,28.52
2019-06-26T09:00:36.245Z,28.56
2019-06-26T09:01:36.174Z,28.55
2019-06-26T09:02:36.137Z,28.60
2019-06-26T09:03:36.097Z,28.67
2019-06-26T09:04:36.053Z,28.80
2019-06-26T09:05:47.627Z,28.74
2019-06-26T09:06:35.980Z,28.75
2019-06-26T09:07:35.941Z,28.78
2019-06-26T09:08:35.898Z,28.86
2019-06-26T09:09:35.926Z,28.82
2019-06-26T09:10:35.821Z,28.90
2019-06-26T09:11:35.781Z,28.89
2019-06-26T09:12:35.747Z,28.97
2019-06-26T09:13:35.814Z,28.96
2019-06-26T09:14:35.677Z,28.97
2019-06-26T09:15:35.629Z,29.02
2019-06-26T09:16:35.590Z,29.06
2019-06-26T09:17:35.565Z,29.10
2019-06-26T09:18:36.323Z,29.12
2019-06-26T09:19:35.474Z,29.10
2019-06-26T09:20:35.431Z,29.12
2019-06-26T09:21:35.393Z,29.03
2019-06-26T09:22:35.358Z,29.15
2019-06-26T09:23:35.316Z,29.21
2019-06-26T09:24:35.306Z,29.24
2019-06-26T09:25:35.237Z,29.24
2019-06-26T09:26:35.230Z,29.27
2019-06-26T09:27:35.162Z,29.30
2019-06-26T09:28:35.122Z,29.34
2019-06-26T09:29:35.087Z,29.37
2019-06-26T09:30:35.047Z,29.43
2019-06-26T09:31:35.012Z,29.47
2019-06-26T09:32:34.969Z,29.42
2019-06-26T09:33:34.932Z,29.47
2019-06-26T09:34:34.905Z,29.53
2019-06-26T09:35:34.849Z,29.58
2019-06-26T09:36:34.818Z,29.59
2019-06-26T09:37:34.781Z,29.59
2019-06-26T09:38:34.743Z,29.62
2019-06-26T09:39:34.702Z,29.69
2019-06-26T09:40:34.665Z,29.73
2019-06-26T09:41:34.630Z,29.76
2019-06-26T09:42:34.584Z,29.86
2019-06-26T09:43:34.543Z,29.83
2019-06-26T09:44:34.508Z,29.84
2019-06-26T09:45:34.469Z,29.89
2019-06-26T09:46:34.433Z,29.96
2019-06-26T09:47:34.395Z,29.94
2019-06-26T09:48:51.125Z,29.95
2019-06-26T09:49:34.313Z,29.99
2019-06-26T09:50:34.277Z,30.02
2019-06-26T09:51:34.247Z,30.10
2019-06-26T09:52:34.206Z,30.03
2019-06-26T09:53:46.650Z,30.05
2019-06-26T09:54:34.126Z,30.11
2019-06-26T09:55:34.085Z,30.14
2019-06-26T09:57:34.014Z,30.26
2019-06-26T09:58:33.972Z,30.24
2019-06-26T09:59:33.933Z,30.21
2019-06-26T10:00:33.895Z,30.21
2019-06-26T10:01:33.856Z,30.31
2019-06-26T10:02:33.816Z,30.23
2019-06-26T10:03:33.784Z,30.32
2019-06-26T10:04:33.745Z,30.38
2019-06-26T10:05:33.714Z,30.35
2019-06-26T10:06:33.667Z,30.38
2019-06-26T10:07:33.627Z,30.43
2019-06-26T10:08:33.588Z,30.54
2019-06-26T10:09:33.546Z,30.49
2019-06-26T10:10:33.509Z,30.51
2019-06-26T10:11:33.471Z,30.54
2019-06-26T10:12:33.442Z,30.55
2019-06-26T10:14:46.501Z,30.56
2019-06-26T10:15:33.321Z,30.65
2019-06-26T10:16:33.293Z,30.59
2019-06-26T10:17:33.246Z,30.73
2019-06-26T10:18:33.273Z,30.65
2019-06-26T10:19:33.172Z,30.65
2019-06-26T10:20:33.133Z,30.65
2019-06-26T10:21:33.099Z,30.69
2019-06-26T10:22:33.052Z,30.78
2019-06-26T10:23:33.018Z,30.80
2019-06-26T10:24:32.991Z,30.76
2019-06-26T10:25:32.984Z,30.78
2019-06-26T10:26:32.900Z,30.78
2019-06-26T10:27:32.863Z,30.92
2019-06-26T10:28:32.830Z,30.89
2019-06-26T10:29:32.786Z,30.91
2019-06-26T10:30:32.749Z,30.86
2019-06-26T10:31:32.721Z,30.92
2019-06-26T10:32:32.677Z,31.02
2019-06-26T10:33:32.643Z,31.04
2019-06-26T10:34:32.602Z,30.99
2019-06-26T10:35:32.564Z,31.05
2019-06-26T10:36:32.526Z,31.08
2019-06-26T10:38:32.446Z,31.20
2019-06-26T10:39:32.472Z,31.20
2019-06-26T10:40:32.377Z,31.18
2019-06-26T10:41:32.338Z,31.17
2019-06-26T10:42:32.303Z,31.25
2019-06-26T10:43:32.268Z,31.36
2019-06-26T10:44:32.218Z,31.26
2019-06-26T10:45:35.864Z,31.32
2019-06-26T10:46:32.145Z,31.39
2019-06-26T10:47:32.108Z,31.45
2019-06-26T10:48:32.104Z,31.50
2019-06-26T10:49:32.032Z,31.55
2019-06-26T10:50:32.001Z,31.50
2019-06-26T10:51:31.956Z,31.59
2019-06-26T10:52:31.923Z,31.59
2019-06-26T10:53:31.888Z,31.60
2019-06-26T10:54:31.846Z,31.72
2019-06-26T10:55:31.812Z,31.72
2019-06-26T10:56:31.774Z,31.67
2019-06-26T10:57:31.739Z,31.67
2019-06-26T10:58:31.697Z,31.82
2019-06-26T10:59:31.662Z,31.85
2019-06-26T11:00:31.624Z,31.89
2019-06-26T11:01:31.588Z,31.93
2019-06-26T11:02:31.551Z,31.86
2019-06-26T11:03:31.514Z,31.98
2019-06-26T11:04:31.474Z,31.95
2019-06-26T11:05:31.504Z,31.98
2019-06-26T11:06:31.403Z,32.05
2019-06-26T11:07:31.359Z,32.12
2019-06-26T11:08:31.353Z,32.15
2019-06-26T11:09:31.289Z,32.11
2019-06-26T11:10:31.252Z,32.24
2019-06-26T11:11:31.214Z,32.20
2019-06-26T11:12:31.174Z,32.22
2019-06-26T11:13:31.136Z,32.24
2019-06-26T11:14:31.104Z,32.35
2019-06-26T11:16:31.025Z,32.41
2019-06-26T11:17:30.998Z,32.41
2019-06-26T11:18:30.957Z,32.49
2019-06-26T11:19:43.287Z,32.54
2019-06-26T11:20:30.918Z,32.57
2019-06-26T11:21:30.844Z,32.60
2019-06-26T11:22:30.806Z,32.64
2019-06-26T11:23:30.770Z,32.73
2019-06-26T11:24:30.760Z,32.72
2019-06-26T11:25:30.691Z,32.71
2019-06-26T11:26:30.669Z,32.67
2019-06-26T11:27:30.628Z,32.73
2019-06-26T11:28:30.581Z,32.83
2019-06-26T11:29:30.550Z,32.83
2019-06-26T11:30:30.508Z,32.90
2019-06-26T11:31:30.483Z,33.01
2019-06-26T11:32:30.435Z,32.98
2019-06-26T11:33:30.408Z,32.97
2019-06-26T11:34:30.394Z,33.00
2019-06-26T11:35:30.329Z,33.03
2019-06-26T11:36:30.294Z,33.12
2019-06-26T11:37:30.253Z,33.15
2019-06-26T11:38:30.216Z,33.17
2019-06-26T11:39:30.177Z,33.20
2019-06-26T11:40:30.154Z,33.29
2019-06-26T11:41:30.106Z,33.32
2019-06-26T11:42:32.706Z,33.36
2019-06-26T11:43:30.031Z,33.32
2019-06-26T11:44:29.999Z,33.48
2019-06-26T11:45:29.960Z,33.45
2019-06-26T11:46:29.926Z,33.55
2019-06-26T11:47:29.891Z,33.57
2019-06-26T11:48:29.854Z,33.60
2019-06-26T11:49:29.820Z,33.76
2019-06-26T11:50:29.781Z,33.70
2019-06-26T11:51:29.742Z,33.69
2019-06-26T11:52:29.707Z,33.82
2019-06-26T11:53:29.670Z,33.85
2019-06-26T11:54:29.638Z,33.88
2019-06-26T11:55:29.599Z,33.89
2019-06-26T11:56:29.581Z,34.00
2019-06-26T11:57:29.539Z,34.10
2019-06-26T11:59:29.450Z,34.21
2019-06-26T12:00:29.413Z,34.26
2019-06-26T12:01:29.377Z,34.19
2019-06-26T12:02:29.344Z,34.38
2019-06-26T12:03:29.306Z,34.33
2019-06-26T12:04:29.274Z,34.38
2019-06-26T12:05:29.236Z,34.44
2019-06-26T12:07:16.586Z,34.48
2019-06-26T12:08:18.537Z,34.56
2019-06-26T12:09:16.519Z,34.60
2019-06-26T12:10:16.478Z,34.58
2019-06-26T12:11:16.446Z,34.65
2019-06-26T12:12:16.419Z,34.75
2019-06-26T12:13:16.388Z,34.86
2019-06-26T12:14:16.340Z,34.97
2019-06-26T12:15:16.302Z,35.10
2019-06-26T12:16:16.275Z,35.22
2019-06-26T12:17:16.238Z,35.27
2019-06-26T12:18:16.255Z,35.42
2019-06-26T12:19:19.082Z,35.47
2019-06-26T12:20:19.144Z,35.59
2019-06-26T12:21:16.087Z,35.63
2019-06-26T12:22:16.051Z,35.57
2019-06-26T12:23:16.015Z,35.69
2019-06-26T12:24:15.978Z,35.63
2019-06-26T12:25:15.943Z,35.61
2019-06-26T12:26:15.914Z,35.69
2019-06-26T12:27:15.898Z,35.75
2019-06-26T12:28:15.845Z,35.79
2019-06-26T12:29:15.802Z,35.78
2019-06-26T12:30:15.766Z,35.86
2019-06-26T12:31:15.741Z,35.82
2019-06-26T12:32:15.701Z,35.84
2019-06-26T12:33:15.677Z,35.96
2019-06-26T12:34:15.629Z,35.98
2019-06-26T12:35:15.596Z,36.01
2019-06-26T12:36:15.563Z,36.13
2019-06-26T12:37:15.525Z,36.13
2019-06-26T12:38:15.489Z,36.31
2019-06-26T12:39:15.453Z,36.33
2019-06-26T12:40:15.479Z,36.28
2019-06-26T12:41:15.389Z,36.43
2019-06-26T12:42:15.355Z,36.50
2019-06-26T12:43:15.314Z,36.65
2019-06-26T12:44:17.897Z,36.81
2019-06-26T12:45:15.248Z,36.84
2019-06-26T12:46:18.112Z,36.96
2019-06-26T12:47:15.181Z,36.99
2019-06-26T12:48:16.374Z,37.01
2019-06-26T12:49:15.112Z,37.15
2019-06-26T12:50:57.486Z,37.19
2019-06-26T12:51:57.424Z,37.44
2019-06-26T12:52:57.404Z,37.50
2019-06-26T12:53:58.483Z,37.60
2019-06-26T12:54:57.326Z,37.75
2019-06-26T12:55:57.296Z,37.92
2019-06-26T12:56:57.259Z,38.05
2019-06-26T12:58:11.729Z,38.16
2019-06-26T12:58:59.842Z,38.36
2019-06-26T12:59:58.093Z,38.50
2019-06-26T13:00:57.126Z,38.65
2019-06-26T13:01:57.094Z,38.96
2019-06-26T13:02:57.053Z,39.10
2019-06-26T13:03:57.022Z,39.48
2019-06-26T13:04:56.986Z,39.75
2019-06-26T13:05:56.955Z,39.93
2019-06-26T13:06:59.098Z,40.12
2019-06-26T13:07:56.887Z,40.36
2019-06-26T13:08:56.858Z,40.57
2019-06-26T13:09:56.827Z,40.77